Terminal Aerodrome Forecast
Issued by NWS

Home | Current Version | Previous Version | Text Only | Print | Product List | Glossary On
Versions: 1 2 3 4 5 6 7 8 9 10 11 12 13 14 15 16 17 18 19 20 21 22 23
000
FTUS43 KLSX 260500
TAFUIN
TAF
KUIN 260539Z 2606/2706 02012G20KT 1SM -SN OVC008
      TEMPO 2608/2609 2SM -SN
     FM260900 36015G25KT 3SM -SN SCT008 OVC010
     FM261100 36015G25KT 6SM -SHSN OVC015
     FM262200 34013KT P6SM BKN020
     FM270200 32008KT P6SM SCT020=

USA.gov is the U.S. government's official web portal to all federal, state and local government web resources and services.